createdAt,value
2017-08-10T00:01:27.292Z,4.50
2017-08-10T00:03:54.823Z,6.10
2017-08-10T00:06:22.369Z,4.30
2017-08-10T00:08:50.964Z,4.30
2017-08-10T00:11:18.478Z,4.20
2017-08-10T00:13:46.019Z,6.40
2017-08-10T00:16:13.557Z,5.10
2017-08-10T00:18:41.466Z,4.53
2017-08-10T00:21:08.983Z,4.90
2017-08-10T00:23:36.901Z,4.73
2017-08-10T00:26:04.448Z,4.97
2017-08-10T00:28:31.946Z,6.00
2017-08-10T00:30:59.482Z,5.27
2017-08-10T00:33:27.003Z,5.40
2017-08-10T00:35:54.782Z,5.40
2017-08-10T00:38:22.326Z,6.40
2017-08-10T00:40:49.853Z,5.07
2017-08-10T00:43:17.377Z,6.13
2017-08-10T00:45:44.896Z,6.43
2017-08-10T00:48:12.421Z,6.47
2017-08-10T00:50:39.941Z,6.63
2017-08-10T00:53:07.473Z,7.07
2017-08-10T00:55:34.980Z,6.63
2017-08-10T00:58:02.496Z,6.33
2017-08-10T01:00:30.022Z,6.07
2017-08-10T01:02:57.561Z,7.00
2017-08-10T01:05:25.502Z,7.57
2017-08-10T01:07:53.742Z,7.50
2017-08-10T01:10:21.288Z,7.17
2017-08-10T01:12:48.792Z,9.50
2017-08-10T01:15:16.310Z,7.63
2017-08-10T01:17:43.823Z,6.37
2017-08-10T01:20:11.371Z,7.10
2017-08-10T01:22:39.005Z,7.13
2017-08-10T01:25:06.514Z,7.40
2017-08-10T01:27:34.448Z,7.90
2017-08-10T01:30:01.954Z,8.23
2017-08-10T01:32:29.507Z,7.83
2017-08-10T01:34:57.021Z,10.30
2017-08-10T01:37:25.146Z,7.70
2017-08-10T01:39:53.054Z,8.50
2017-08-10T01:42:20.591Z,8.07
2017-08-10T01:44:48.141Z,8.80
2017-08-10T01:47:15.670Z,8.97
2017-08-10T01:49:43.234Z,9.50
2017-08-10T01:52:10.777Z,9.73
2017-08-10T01:54:38.325Z,9.63
2017-08-10T01:57:05.834Z,9.50
2017-08-10T01:59:33.381Z,14.73
2017-08-10T02:02:00.880Z,10.00
2017-08-10T02:04:28.415Z,12.60
2017-08-10T02:06:55.949Z,14.90
2017-08-10T02:09:23.535Z,14.83
2017-08-10T02:11:51.048Z,15.63
2017-08-10T02:14:18.954Z,15.87
2017-08-10T02:16:46.497Z,18.87
2017-08-10T02:19:14.010Z,18.10
2017-08-10T02:21:41.559Z,20.43
2017-08-10T02:24:09.070Z,20.37
2017-08-10T02:26:36.602Z,21.87
2017-08-10T02:29:04.107Z,20.20
2017-08-10T02:31:31.643Z,20.70
2017-08-10T02:33:59.177Z,22.17
2017-08-10T02:36:27.122Z,23.50
2017-08-10T02:38:55.049Z,22.13
2017-08-10T02:41:23.338Z,22.83
2017-08-10T02:43:50.971Z,21.53
2017-08-10T02:46:18.489Z,22.03
2017-08-10T02:48:46.031Z,24.47
2017-08-10T02:51:13.545Z,25.40
2017-08-10T02:53:41.084Z,25.87
2017-08-10T02:56:09.009Z,24.70
2017-08-10T02:58:36.542Z,28.30
2017-08-10T03:01:04.042Z,27.37
2017-08-10T03:03:31.608Z,30.93
2017-08-10T03:05:59.145Z,29.73
2017-08-10T03:08:26.670Z,28.17
2017-08-10T03:10:54.220Z,27.03
2017-08-10T03:13:21.752Z,28.07
2017-08-10T03:15:49.294Z,29.40
2017-08-10T03:18:16.801Z,35.60
2017-08-10T03:20:44.347Z,31.47
2017-08-10T03:23:11.858Z,32.13
2017-08-10T03:25:39.415Z,35.47
2017-08-10T03:28:06.964Z,34.17
2017-08-10T03:30:34.555Z,36.33
2017-08-10T03:33:02.070Z,36.17
2017-08-10T03:35:29.594Z,37.23
2017-08-10T03:37:57.129Z,34.83
2017-08-10T03:40:25.070Z,32.37
2017-08-10T03:42:52.602Z,33.07
2017-08-10T03:45:20.126Z,31.03
2017-08-10T03:47:47.702Z,30.67
2017-08-10T03:50:15.224Z,33.53
2017-08-10T03:52:42.812Z,32.57
2017-08-10T03:55:10.373Z,34.53
2017-08-10T03:57:37.907Z,36.73
2017-08-10T04:00:05.885Z,36.27
2017-08-10T04:02:33.426Z,34.37
2017-08-10T04:05:01.390Z,30.57
2017-08-10T04:07:29.325Z,29.03
2017-08-10T04:09:56.849Z,28.23
2017-08-10T04:12:24.805Z,30.33
2017-08-10T04:14:52.331Z,26.13
2017-08-10T04:17:19.885Z,28.60
2017-08-10T04:19:47.475Z,29.20
2017-08-10T04:22:15.043Z,29.80
2017-08-10T04:24:42.576Z,29.17
2017-08-10T04:27:10.109Z,28.30
2017-08-10T04:29:37.628Z,27.87
2017-08-10T04:32:05.268Z,31.50
2017-08-10T04:34:32.808Z,35.60
2017-08-10T04:37:00.349Z,38.60
2017-08-10T04:39:27.876Z,33.83
2017-08-10T04:41:55.449Z,35.07
2017-08-10T04:44:22.989Z,30.50
2017-08-10T04:46:50.545Z,31.77
2017-08-10T04:49:18.099Z,33.10
2017-08-10T04:51:45.634Z,34.83
2017-08-10T04:54:13.616Z,36.07
2017-08-10T04:56:41.181Z,34.73
2017-08-10T04:59:08.729Z,38.07
2017-08-10T05:01:36.250Z,28.43
2017-08-10T05:04:03.799Z,28.87
2017-08-10T05:06:31.388Z,40.77
2017-08-10T05:08:58.924Z,27.97
2017-08-10T05:11:26.485Z,29.00
2017-08-10T05:13:54.836Z,25.70
2017-08-10T05:16:22.395Z,27.43
2017-08-10T05:18:49.935Z,27.97
2017-08-10T05:21:17.509Z,25.63
2017-08-10T05:23:45.112Z,25.97
2017-08-10T05:26:12.663Z,24.57
2017-08-10T05:28:40.228Z,26.70
2017-08-10T05:31:07.820Z,32.17
2017-08-10T05:33:35.423Z,34.20
2017-08-10T05:36:03.006Z,33.43
2017-08-10T05:38:30.575Z,30.63
2017-08-10T05:40:58.570Z,33.17
2017-08-10T05:43:26.194Z,33.90
2017-08-10T05:45:53.713Z,30.30
2017-08-10T05:48:21.285Z,30.57
2017-08-10T05:50:48.797Z,34.07
2017-08-10T05:53:16.416Z,31.57
2017-08-10T05:55:45.264Z,30.13
2017-08-10T05:58:12.852Z,29.83
2017-08-10T06:00:40.415Z,32.50
2017-08-10T06:03:07.957Z,29.83
2017-08-10T06:05:35.516Z,33.97
2017-08-10T06:08:03.113Z,32.70
2017-08-10T06:10:31.784Z,41.40
2017-08-10T06:12:59.339Z,35.70
2017-08-10T06:15:26.979Z,34.83
2017-08-10T06:17:54.529Z,37.40
2017-08-10T06:20:22.137Z,36.10
2017-08-10T06:22:50.072Z,37.10
2017-08-10T06:25:17.640Z,37.87
2017-08-10T06:27:45.193Z,41.10
2017-08-10T06:30:12.706Z,35.20
2017-08-10T06:32:54.332Z,33.17
2017-08-10T06:35:21.872Z,31.23
2017-08-10T06:37:49.402Z,29.03
2017-08-10T06:40:16.920Z,26.97
2017-08-10T06:42:44.479Z,26.93
2017-08-10T06:45:12.015Z,20.77
2017-08-10T06:47:39.534Z,23.07
2017-08-10T06:50:08.145Z,21.77
2017-08-10T06:52:35.720Z,18.50
2017-08-10T06:55:03.279Z,16.40
2017-08-10T06:57:30.891Z,15.53
2017-08-10T06:59:58.430Z,14.77
2017-08-10T07:02:25.948Z,20.00
2017-08-10T07:04:53.519Z,24.97
2017-08-10T07:07:21.033Z,24.30
2017-08-10T07:09:48.589Z,28.90
2017-08-10T07:12:16.139Z,28.20
2017-08-10T07:14:43.678Z,24.57
2017-08-10T07:17:11.219Z,23.70
2017-08-10T07:19:38.734Z,28.67
2017-08-10T07:22:07.369Z,31.17
2017-08-10T07:24:34.922Z,29.30
2017-08-10T07:27:02.449Z,22.47
2017-08-10T07:29:30.050Z,24.17
2017-08-10T07:31:58.076Z,26.40
2017-08-10T07:34:25.610Z,33.77
2017-08-10T07:36:53.826Z,33.40
2017-08-10T07:39:21.364Z,27.33
2017-08-10T07:41:48.878Z,26.10
2017-08-10T07:44:16.867Z,31.40
2017-08-10T07:46:44.396Z,35.63
2017-08-10T07:49:12.326Z,29.90
2017-08-10T07:51:39.904Z,27.70
2017-08-10T07:54:07.493Z,25.47
2017-08-10T07:56:35.028Z,26.40
2017-08-10T07:59:02.572Z,29.40
2017-08-10T08:01:30.222Z,30.67
2017-08-10T08:03:57.742Z,31.57
2017-08-10T08:06:25.343Z,25.87
2017-08-10T08:08:53.409Z,24.30
2017-08-10T08:11:20.998Z,22.77
2017-08-10T08:13:48.580Z,26.97
2017-08-10T08:16:16.131Z,24.20
2017-08-10T08:18:43.642Z,30.63
2017-08-10T08:21:11.174Z,28.10
2017-08-10T08:23:38.807Z,29.87
2017-08-10T08:26:06.766Z,32.75
2017-08-10T08:28:34.314Z,25.83
2017-08-10T08:31:01.941Z,22.43
2017-08-10T08:33:29.508Z,20.20
2017-08-10T08:35:57.083Z,17.60
2017-08-10T08:38:24.683Z,19.50
2017-08-10T08:40:52.249Z,23.30
2017-08-10T08:43:19.805Z,19.87
2017-08-10T08:45:47.318Z,20.53
2017-08-10T08:48:14.905Z,16.63
2017-08-10T08:50:42.483Z,18.63
2017-08-10T08:53:09.993Z,18.93
2017-08-10T08:55:37.522Z,17.23
2017-08-10T08:58:05.068Z,15.47
2017-08-10T09:00:33.647Z,17.93
2017-08-10T09:03:01.236Z,19.30
2017-08-10T09:05:28.798Z,18.70
2017-08-10T09:07:56.339Z,17.50
2017-08-10T09:10:24.028Z,20.03
2017-08-10T09:12:51.552Z,16.20
2017-08-10T09:15:19.123Z,16.67
2017-08-10T09:17:46.699Z,14.07
2017-08-10T09:20:14.213Z,17.10
2017-08-10T09:22:41.854Z,16.97
2017-08-10T09:25:09.389Z,15.30
2017-08-10T09:27:36.958Z,19.37
2017-08-10T09:30:04.507Z,18.57
2017-08-10T09:32:32.038Z,19.27
2017-08-10T09:34:59.568Z,19.67
2017-08-10T09:37:27.081Z,19.90
2017-08-10T09:39:54.644Z,18.37
2017-08-10T09:42:22.156Z,18.57
2017-08-10T09:44:49.701Z,17.07
2017-08-10T09:47:19.308Z,20.67
2017-08-10T09:49:46.896Z,20.17
2017-08-10T09:52:14.465Z,21.13
2017-08-10T09:54:42.148Z,21.03
2017-08-10T09:57:09.728Z,20.27
2017-08-10T09:59:37.294Z,14.93
2017-08-10T10:02:04.932Z,14.63
2017-08-10T10:04:32.860Z,11.93
2017-08-10T10:07:00.454Z,12.00
2017-08-10T10:09:27.992Z,15.77
2017-08-10T10:11:55.529Z,12.00
2017-08-10T10:14:23.104Z,11.63
2017-08-10T10:16:50.718Z,7.37
2017-08-10T10:19:18.312Z,8.43
2017-08-10T10:21:45.929Z,5.70
2017-08-10T10:24:13.860Z,8.07
2017-08-10T10:26:41.617Z,8.80
2017-08-10T10:29:09.188Z,11.53
2017-08-10T10:31:36.714Z,10.20
2017-08-10T10:34:04.359Z,7.83
2017-08-10T10:36:31.982Z,8.57
2017-08-10T10:38:59.926Z,8.87
2017-08-10T10:41:27.469Z,8.63
2017-08-10T10:43:54.989Z,8.47
2017-08-10T10:46:22.527Z,7.73
2017-08-10T10:48:50.099Z,8.30
2017-08-10T10:51:17.635Z,9.33
2017-08-10T10:53:46.146Z,12.57
2017-08-10T10:56:13.674Z,13.63
2017-08-10T10:58:41.205Z,14.00
2017-08-10T11:01:08.741Z,15.43
2017-08-10T11:03:36.320Z,13.97
2017-08-10T11:06:03.850Z,13.17
2017-08-10T11:08:32.393Z,14.53
2017-08-10T11:11:06.052Z,15.17
2017-08-10T11:13:33.722Z,16.30
2017-08-10T11:16:01.276Z,16.33
2017-08-10T11:18:34.697Z,19.77
2017-08-10T11:21:02.288Z,12.37
2017-08-10T11:23:29.845Z,12.30
2017-08-10T11:25:57.378Z,14.00
2017-08-10T11:28:24.930Z,13.53
2017-08-10T11:30:52.532Z,10.17
2017-08-10T11:33:20.049Z,12.33
2017-08-10T11:35:47.662Z,15.60
2017-08-10T11:38:15.239Z,14.23
2017-08-10T11:40:42.797Z,14.00
2017-08-10T11:43:10.361Z,11.90
2017-08-10T11:45:37.942Z,11.57
2017-08-10T11:48:05.472Z,13.33
2017-08-10T11:50:32.986Z,8.77
2017-08-10T11:53:00.569Z,9.60
2017-08-10T11:55:28.116Z,8.33
2017-08-10T11:57:55.708Z,7.80
2017-08-10T12:00:23.767Z,6.57
2017-08-10T12:02:51.431Z,6.57
2017-08-10T12:05:18.989Z,7.80
2017-08-10T12:07:46.518Z,8.87
2017-08-10T12:10:14.051Z,13.67
2017-08-10T12:12:41.615Z,9.43
2017-08-10T12:15:09.122Z,6.47
2017-08-10T12:17:39.996Z,9.73
2017-08-10T12:20:07.543Z,6.33
2017-08-10T12:22:35.074Z,6.83
2017-08-10T12:25:02.606Z,2.97
2017-08-10T12:27:30.173Z,3.50
2017-08-10T12:29:57.770Z,3.63
2017-08-10T12:32:25.290Z,5.17
2017-08-10T12:34:52.887Z,6.80
2017-08-10T12:37:20.395Z,7.50
2017-08-10T12:39:47.932Z,7.07
2017-08-10T12:42:15.462Z,11.03
2017-08-10T12:44:42.992Z,6.50
2017-08-10T12:47:10.529Z,9.77
2017-08-10T12:49:38.081Z,11.20
2017-08-10T12:52:05.644Z,5.43
2017-08-10T12:54:33.163Z,7.13
2017-08-10T12:57:00.725Z,8.10
2017-08-10T12:59:28.282Z,8.20
2017-08-10T13:01:55.809Z,9.43
2017-08-10T13:04:23.343Z,9.70
2017-08-10T13:06:50.919Z,12.20
2017-08-10T13:09:20.477Z,11.70
2017-08-10T13:11:48.058Z,13.67
2017-08-10T13:14:15.606Z,11.13
2017-08-10T13:16:43.145Z,11.50
2017-08-10T13:19:10.723Z,7.97
2017-08-10T13:21:38.631Z,8.83
2017-08-10T13:24:06.246Z,9.57
2017-08-10T13:26:35.196Z,10.33
2017-08-10T13:29:02.720Z,8.40
2017-08-10T13:31:30.235Z,7.80
2017-08-10T13:33:57.836Z,9.33
2017-08-10T13:36:29.046Z,5.60
2017-08-10T13:38:57.010Z,5.47
2017-08-10T13:41:24.546Z,5.00
2017-08-10T13:43:52.088Z,7.50
2017-08-10T13:46:19.655Z,7.70
2017-08-10T13:48:47.222Z,9.40
2017-08-10T13:51:14.784Z,9.30
2017-08-10T13:53:42.281Z,9.67
2017-08-10T13:56:09.801Z,9.40
2017-08-10T13:58:37.317Z,10.23
2017-08-10T14:01:04.909Z,9.97
2017-08-10T14:03:32.425Z,13.60
2017-08-10T14:06:00.013Z,12.27
2017-08-10T14:08:27.542Z,13.07
2017-08-10T14:10:55.449Z,12.77
2017-08-10T14:13:23.002Z,13.80
2017-08-10T14:15:50.586Z,14.67
2017-08-10T14:18:18.220Z,14.50
2017-08-10T14:20:45.770Z,13.83
2017-08-10T14:23:13.307Z,16.80
2017-08-10T14:25:40.860Z,15.70
2017-08-10T14:28:08.490Z,16.90
2017-08-10T14:30:36.461Z,16.43
2017-08-10T14:33:03.987Z,16.33
2017-08-10T14:35:31.515Z,18.77
2017-08-10T14:37:59.050Z,17.83
2017-08-10T14:40:26.628Z,19.30
2017-08-10T14:42:54.613Z,23.10
2017-08-10T14:45:22.262Z,23.93
2017-08-10T14:47:49.815Z,24.60
2017-08-10T14:50:17.408Z,26.23
2017-08-10T14:52:44.935Z,22.60
2017-08-10T14:55:12.559Z,21.37
2017-08-10T14:57:40.095Z,14.63
2017-08-10T15:00:07.707Z,17.00
2017-08-10T15:02:35.262Z,21.90
2017-08-10T15:05:02.923Z,19.17
2017-08-10T15:07:30.532Z,26.43
2017-08-10T15:09:58.047Z,24.77
2017-08-10T15:12:25.657Z,21.83
2017-08-10T15:14:53.171Z,20.80
2017-08-10T15:17:20.695Z,20.90
2017-08-10T15:19:48.272Z,19.97
2017-08-10T15:22:15.808Z,17.60
2017-08-10T15:24:43.765Z,17.00
2017-08-10T15:27:11.298Z,15.80
2017-08-10T15:29:38.866Z,16.63
2017-08-10T15:32:06.438Z,18.23
2017-08-10T15:34:34.009Z,22.00
2017-08-10T15:37:02.008Z,22.37
2017-08-10T15:39:29.589Z,24.90
2017-08-10T15:41:57.152Z,29.40
2017-08-10T15:44:24.681Z,36.97
2017-08-10T15:46:52.241Z,35.40
2017-08-10T15:49:19.793Z,29.20
2017-08-10T15:51:47.367Z,41.33
2017-08-10T15:54:14.890Z,33.23
2017-08-10T15:56:42.430Z,33.20
2017-08-10T15:59:10.018Z,29.10
2017-08-10T16:01:37.571Z,38.10
2017-08-10T16:04:05.149Z,29.27
2017-08-10T16:06:32.665Z,40.50
2017-08-10T16:09:00.206Z,33.83
2017-08-10T16:11:27.778Z,33.17
2017-08-10T16:13:55.348Z,30.40
2017-08-10T16:16:22.895Z,34.80
2017-08-10T16:18:50.496Z,33.03
2017-08-10T16:21:18.021Z,35.83
2017-08-10T16:23:45.562Z,33.43
2017-08-10T16:26:13.144Z,34.20
2017-08-10T16:28:40.688Z,34.77
2017-08-10T16:31:08.206Z,35.40
2017-08-10T16:33:35.774Z,33.20
2017-08-10T16:36:03.313Z,41.20
2017-08-10T16:38:30.853Z,36.53
2017-08-10T16:40:58.442Z,38.57
2017-08-10T16:43:25.955Z,38.60
2017-08-10T16:45:54.012Z,41.90
2017-08-10T16:48:21.556Z,34.97
2017-08-10T16:50:49.105Z,36.77
2017-08-10T16:53:16.645Z,36.57
2017-08-10T16:55:44.255Z,33.20
2017-08-10T16:58:11.828Z,32.37
2017-08-10T17:00:39.409Z,40.40
2017-08-10T17:03:06.974Z,41.97
2017-08-10T17:05:34.510Z,52.27
2017-08-10T17:08:02.061Z,27.80
2017-08-10T17:10:29.867Z,14.97
2017-08-10T17:12:57.424Z,15.57
2017-08-10T17:15:25.379Z,17.90
2017-08-10T17:17:52.940Z,16.27
2017-08-10T17:20:20.560Z,16.93
2017-08-10T17:22:48.498Z,16.33
2017-08-10T17:25:16.339Z,17.13
2017-08-10T17:27:43.928Z,27.43
2017-08-10T17:30:11.874Z,26.43
2017-08-10T17:32:39.433Z,31.97
2017-08-10T17:35:07.246Z,30.80
2017-08-10T17:37:34.857Z,41.20
2017-08-10T17:40:02.516Z,39.80
2017-08-10T17:42:30.074Z,38.07
2017-08-10T17:44:57.630Z,48.63
2017-08-10T17:47:25.208Z,47.53
2017-08-10T17:49:52.862Z,46.57
2017-08-10T17:52:20.513Z,54.63
2017-08-10T17:54:48.030Z,64.20
2017-08-10T17:57:16.196Z,58.23
2017-08-10T17:59:44.197Z,67.03
2017-08-10T18:02:11.845Z,58.00
2017-08-10T18:04:39.399Z,64.70
2017-08-10T18:07:06.969Z,54.67
2017-08-10T18:09:34.521Z,60.63
2017-08-10T18:12:02.125Z,57.00
2017-08-10T18:14:29.767Z,74.90
2017-08-10T18:16:57.459Z,75.93
2017-08-10T18:19:25.577Z,65.83
2017-08-10T18:21:53.340Z,73.77
2017-08-10T18:24:20.879Z,80.60
2017-08-10T18:26:48.431Z,86.40
2017-08-10T18:29:16.003Z,78.30
2017-08-10T18:31:43.578Z,84.73
2017-08-10T18:34:11.107Z,82.30
2017-08-10T18:36:38.679Z,89.83
2017-08-10T18:39:06.232Z,99.00
2017-08-10T18:41:33.780Z,103.93
2017-08-10T18:44:01.318Z,87.00
2017-08-10T18:46:28.852Z,95.30
2017-08-10T18:48:56.402Z,109.83
2017-08-10T18:51:24.016Z,112.10
2017-08-10T18:53:51.957Z,113.33
2017-08-10T18:56:19.662Z,141.47
2017-08-10T18:58:47.198Z,139.93
2017-08-10T19:01:14.781Z,143.13
2017-08-10T19:03:42.371Z,122.53
2017-08-10T19:06:09.950Z,146.10
2017-08-10T19:08:37.512Z,144.13
2017-08-10T19:11:05.028Z,144.03
2017-08-10T19:13:32.599Z,166.87
2017-08-10T19:16:00.130Z,157.47
2017-08-10T19:18:28.105Z,145.90
2017-08-10T19:20:55.647Z,147.23
2017-08-10T19:23:23.229Z,149.83
2017-08-10T19:25:50.785Z,176.47
2017-08-10T19:28:18.314Z,162.63
2017-08-10T19:30:46.267Z,151.70
2017-08-10T19:33:13.843Z,148.13
2017-08-10T19:35:41.797Z,172.87
2017-08-10T19:38:09.328Z,183.17
2017-08-10T19:40:36.869Z,172.53
2017-08-10T19:43:04.394Z,165.10
2017-08-10T19:45:31.950Z,201.90
2017-08-10T19:47:59.547Z,165.23
2017-08-10T19:50:27.122Z,167.00
2017-08-10T19:52:54.692Z,189.77
2017-08-10T19:55:22.301Z,203.00
2017-08-10T19:57:49.853Z,175.83
2017-08-10T20:00:17.393Z,182.80
2017-08-10T20:02:45.330Z,202.87
2017-08-10T20:05:12.859Z,215.47
2017-08-10T20:07:40.406Z,206.33
2017-08-10T20:10:07.950Z,218.03
2017-08-10T20:12:35.522Z,183.53
2017-08-10T20:15:03.051Z,209.23
2017-08-10T20:17:31.013Z,208.67
2017-08-10T20:19:58.565Z,242.10
2017-08-10T20:22:26.132Z,246.13
2017-08-10T20:24:53.643Z,277.33
2017-08-10T20:27:21.185Z,276.53
2017-08-10T20:29:48.765Z,233.43
2017-08-10T20:32:16.290Z,248.30
2017-08-10T20:34:43.834Z,270.93
2017-08-10T20:37:11.404Z,311.43
2017-08-10T20:39:38.961Z,279.07
2017-08-10T20:42:06.655Z,308.53
2017-08-10T20:44:34.205Z,333.53
2017-08-10T20:47:01.742Z,297.03
2017-08-10T20:49:29.294Z,292.93
2017-08-10T20:51:56.835Z,337.93
2017-08-10T20:54:24.752Z,305.37
2017-08-10T20:56:52.294Z,289.03
2017-08-10T20:59:19.848Z,301.87
2017-08-10T21:01:47.407Z,372.00
2017-08-10T21:04:14.940Z,311.90
2017-08-10T21:06:42.910Z,420.10
2017-08-10T21:09:10.458Z,353.97
2017-08-10T21:11:38.003Z,362.40
2017-08-10T21:14:05.545Z,333.30
2017-08-10T21:16:33.098Z,403.00
2017-08-10T21:19:00.646Z,348.97
2017-08-10T21:21:28.178Z,333.17
2017-08-10T21:23:55.713Z,293.60
2017-08-10T21:26:23.633Z,336.20
2017-08-10T21:28:51.196Z,347.87
2017-08-10T21:31:18.721Z,344.00
2017-08-10T21:33:46.753Z,404.70
2017-08-10T21:36:14.300Z,287.60
2017-08-10T21:38:41.869Z,322.80
2017-08-10T21:41:09.397Z,380.87
2017-08-10T21:43:36.968Z,339.97
2017-08-10T21:46:04.518Z,322.37
2017-08-10T21:48:32.051Z,376.63
2017-08-10T21:50:59.590Z,338.93
2017-08-10T21:53:27.119Z,346.13
2017-08-10T21:55:54.653Z,292.33
2017-08-10T21:58:22.165Z,331.30
2017-08-10T22:00:49.709Z,278.30
2017-08-10T22:03:17.647Z,376.17
2017-08-10T22:05:45.209Z,312.97
2017-08-10T22:08:12.729Z,380.17
2017-08-10T22:10:40.276Z,307.43
2017-08-10T22:13:07.789Z,341.87
2017-08-10T22:15:35.310Z,336.40
2017-08-10T22:18:02.856Z,338.90
2017-08-10T22:20:30.373Z,300.43
2017-08-10T22:22:57.968Z,243.43
2017-08-10T22:25:25.489Z,293.43
2017-08-10T22:27:53.043Z,298.53
2017-08-10T22:30:20.583Z,227.63
2017-08-10T22:32:48.145Z,264.17
2017-08-10T22:35:15.660Z,230.13
2017-08-10T22:37:43.181Z,242.67
2017-08-10T22:40:10.723Z,284.20
2017-08-10T22:42:38.260Z,308.33
2017-08-10T22:45:05.816Z,254.83
2017-08-10T22:47:33.377Z,311.70
2017-08-10T22:50:00.910Z,276.87
2017-08-10T22:52:28.436Z,259.70
2017-08-10T22:54:56.388Z,309.47
2017-08-10T22:57:23.936Z,278.20
2017-08-10T22:59:51.487Z,337.63
2017-08-10T23:02:19.000Z,163.23
2017-08-10T23:04:46.529Z,56.53
2017-08-10T23:07:14.070Z,43.93
2017-08-10T23:09:41.584Z,49.43
2017-08-10T23:12:09.137Z,72.13
2017-08-10T23:14:36.686Z,50.30
2017-08-10T23:17:04.229Z,70.97
2017-08-10T23:19:32.151Z,91.40
2017-08-10T23:21:59.697Z,86.87
2017-08-10T23:24:27.248Z,76.50
2017-08-10T23:26:54.805Z,66.87
2017-08-10T23:29:22.344Z,49.37
2017-08-10T23:31:49.877Z,64.63
2017-08-10T23:34:17.418Z,61.70
2017-08-10T23:36:44.945Z,70.17
2017-08-10T23:39:12.487Z,71.20
2017-08-10T23:41:40.029Z,85.23
2017-08-10T23:44:07.995Z,83.27
2017-08-10T23:46:35.538Z,69.33
2017-08-10T23:49:03.101Z,63.27
2017-08-10T23:51:31.160Z,54.87
2017-08-10T23:53:59.095Z,42.80
2017-08-10T23:56:26.758Z,33.07
2017-08-10T23:58:54.305Z,38.47
